createdAt,value
2023-04-05T00:01:53.534Z,61.70
2023-04-05T00:06:57.409Z,62.50
2023-04-05T00:11:59.339Z,69.50
2023-04-05T00:17:01.312Z,63.20
2023-04-05T00:22:03.673Z,60.60
2023-04-05T00:27:06.063Z,75.50
2023-04-05T00:32:08.155Z,54.00
2023-04-05T00:37:11.958Z,65.10
2023-04-05T00:42:14.876Z,64.20
2023-04-05T00:47:17.642Z,67.70
2023-04-05T00:52:19.883Z,69.00
2023-04-05T00:57:21.873Z,69.90
2023-04-05T01:02:39.469Z,66.10
2023-04-05T01:07:54.116Z,61.00
2023-04-05T01:12:56.205Z,64.20
2023-04-05T01:18:02.058Z,57.60
2023-04-05T01:23:38.556Z,58.70
2023-04-05T01:28:52.478Z,54.50
2023-04-05T01:34:32.101Z,53.10
2023-04-05T01:39:36.129Z,50.30
2023-04-05T01:44:40.800Z,44.30
2023-04-05T01:49:42.847Z,41.60
2023-04-05T01:54:45.337Z,44.00
2023-04-05T01:59:47.464Z,49.50
2023-04-05T02:04:49.371Z,42.30
2023-04-05T02:09:51.261Z,39.10
2023-04-05T02:14:53.516Z,45.50
2023-04-05T02:20:02.239Z,45.90
2023-04-05T02:25:05.429Z,44.80
2023-04-05T02:30:08.191Z,50.30
2023-04-05T02:35:10.855Z,54.60
2023-04-05T02:40:15.398Z,49.60
2023-04-05T02:45:17.337Z,61.00
2023-04-05T02:50:20.674Z,45.40
2023-04-05T02:55:23.005Z,70.70
2023-04-05T03:00:27.870Z,61.50
2023-04-05T03:05:30.637Z,62.70
2023-04-05T03:10:36.107Z,63.70
2023-04-05T03:15:47.457Z,69.50
2023-04-05T03:20:56.846Z,89.40
2023-04-05T03:26:01.559Z,86.90
2023-04-05T03:31:06.046Z,74.80
2023-04-05T03:36:09.193Z,69.30
2023-04-05T03:41:12.951Z,67.20
2023-04-05T03:46:15.228Z,55.60
2023-04-05T03:51:19.063Z,48.50
2023-04-05T03:56:25.838Z,46.10
2023-04-05T04:01:28.095Z,47.80
2023-04-05T04:06:31.066Z,50.10
2023-04-05T04:11:33.195Z,48.50
2023-04-05T04:16:38.364Z,60.40
2023-04-05T04:21:51.909Z,100.10
2023-04-05T04:26:59.899Z,134.80
2023-04-05T04:32:26.735Z,174.50
2023-04-05T04:37:55.246Z,263.20
2023-04-05T04:43:27.384Z,237.40
2023-04-05T04:48:52.253Z,228.80
2023-04-05T04:54:07.737Z,237.90
2023-04-05T04:59:09.782Z,216.90
2023-04-05T05:04:12.415Z,187.20
2023-04-05T05:09:16.226Z,185.40
2023-04-05T05:14:25.407Z,121.40
2023-04-05T05:19:28.994Z,112.70
2023-04-05T05:24:31.088Z,102.80
2023-04-05T05:29:33.172Z,84.60
2023-04-05T05:34:35.724Z,99.50
2023-04-05T05:39:37.756Z,81.70
2023-04-05T05:44:40.023Z,65.60
2023-04-05T05:49:42.358Z,63.20
2023-04-05T05:54:44.609Z,66.30
2023-04-05T05:59:47.361Z,58.20
2023-04-05T06:04:49.877Z,51.90
2023-04-05T06:09:51.855Z,50.40
2023-04-05T06:14:54.962Z,54.20
2023-04-05T06:19:57.633Z,49.20
2023-04-05T06:25:00.392Z,42.90
2023-04-05T06:30:03.341Z,38.20
2023-04-05T06:35:06.518Z,37.50
2023-04-05T06:40:09.090Z,39.10
2023-04-05T06:45:12.067Z,32.80
2023-04-05T06:50:14.002Z,34.60
2023-04-05T06:55:16.462Z,28.90
2023-04-05T07:00:19.859Z,27.70
2023-04-05T07:05:22.100Z,28.40
2023-04-05T07:10:24.505Z,26.60
2023-04-05T07:15:30.410Z,26.90
2023-04-05T07:20:33.218Z,25.10
2023-04-05T07:25:39.866Z,22.70
2023-04-05T07:30:52.559Z,25.80
2023-04-05T07:37:12.369Z,25.70
2023-04-05T07:42:23.407Z,24.00
2023-04-05T07:47:53.832Z,28.10
2023-04-05T07:53:09.468Z,12.90
2023-04-05T07:58:23.306Z,11.30
2023-04-05T08:03:26.619Z,11.80
2023-04-05T08:08:29.570Z,14.70
2023-04-05T08:13:50.472Z,8.80
2023-04-05T08:18:57.771Z,5.40
2023-04-05T08:24:10.306Z,2.70
2023-04-05T08:29:13.962Z,3.80
2023-04-05T08:34:16.441Z,1.80
2023-04-05T08:39:19.393Z,3.40
2023-04-05T08:44:23.171Z,4.30
2023-04-05T08:49:26.007Z,2.60
2023-04-05T08:54:28.036Z,6.90
2023-04-05T08:59:33.027Z,6.10
2023-04-05T09:04:40.332Z,5.00
2023-04-05T09:09:46.864Z,6.10
2023-04-05T09:14:50.638Z,5.90
2023-04-05T09:20:23.127Z,6.60
2023-04-05T09:25:38.887Z,5.00
2023-04-05T09:30:46.622Z,6.90
2023-04-05T09:35:51.403Z,3.90
2023-04-05T09:40:56.887Z,3.60
2023-04-05T09:46:07.772Z,4.20
2023-04-05T09:51:12.910Z,5.60
2023-04-05T09:56:15.658Z,4.80
2023-04-05T10:01:19.007Z,4.30
2023-04-05T10:06:21.683Z,4.00
2023-04-05T10:11:24.471Z,5.30
2023-04-05T10:16:29.743Z,3.60
2023-04-05T10:21:36.341Z,3.70
2023-04-05T10:26:52.983Z,4.40
2023-04-05T10:32:03.245Z,4.60
2023-04-05T10:37:07.216Z,5.80
2023-04-05T10:42:28.334Z,4.90
2023-04-05T10:47:39.133Z,5.10
2023-04-05T10:52:42.856Z,3.00
2023-04-05T10:57:46.432Z,4.80
2023-04-05T11:02:49.309Z,4.40
2023-04-05T11:07:52.695Z,3.20
2023-04-05T11:12:57.976Z,4.20
2023-04-05T11:18:20.860Z,5.60
2023-04-05T11:23:29.310Z,4.10
2023-04-05T11:28:40.606Z,3.20
2023-04-05T11:33:55.353Z,4.50
2023-04-05T11:39:18.708Z,3.40
2023-04-05T11:44:22.288Z,3.40
2023-04-05T11:49:33.033Z,3.20
2023-04-05T11:54:35.876Z,4.50
2023-04-05T11:59:39.098Z,3.50
2023-04-05T12:04:41.480Z,4.90
2023-04-05T12:10:13.978Z,4.00
2023-04-05T12:15:20.591Z,6.10
2023-04-05T12:20:25.022Z,4.40
2023-04-05T12:25:28.779Z,3.10
2023-04-05T12:30:37.130Z,3.80
2023-04-05T12:35:42.518Z,2.80
2023-04-05T12:40:47.013Z,3.10
2023-04-05T12:45:50.800Z,3.40
2023-04-05T12:50:55.163Z,2.20
2023-04-05T12:55:58.822Z,4.80
2023-04-05T13:01:04.351Z,2.90
2023-04-05T13:06:07.244Z,2.50
2023-04-05T13:11:09.262Z,2.30
2023-04-05T13:16:11.315Z,4.40
2023-04-05T13:21:14.839Z,3.30
2023-04-05T13:26:17.522Z,2.90
2023-04-05T13:31:19.995Z,2.00
2023-04-05T13:36:22.759Z,4.70
2023-04-05T13:41:26.089Z,1.80
2023-04-05T13:47:21.711Z,3.80
2023-04-05T13:53:19.679Z,5.60
2023-04-05T13:59:11.149Z,3.10
2023-04-05T14:04:54.379Z,3.70
2023-04-05T14:10:27.128Z,2.80
2023-04-05T14:15:40.000Z,2.70
2023-04-05T14:20:48.876Z,3.70
2023-04-05T14:25:50.827Z,1.70
2023-04-05T14:30:59.733Z,3.10
2023-04-05T14:36:02.886Z,3.50
2023-04-05T14:41:08.538Z,5.20
2023-04-05T14:46:31.078Z,4.20
2023-04-05T14:51:46.065Z,4.60
2023-04-05T14:56:49.121Z,3.90
2023-04-05T15:01:54.443Z,2.20
2023-04-05T15:06:57.010Z,3.20
2023-04-05T15:12:22.459Z,3.30
2023-04-05T15:17:40.528Z,4.10
2023-04-05T15:22:43.686Z,4.90
2023-04-05T15:28:07.024Z,3.20
2023-04-05T15:33:09.424Z,3.60
2023-04-05T15:38:35.428Z,3.00
2023-04-05T15:43:39.308Z,2.90
2023-04-05T15:48:44.830Z,4.80
2023-04-05T15:53:49.951Z,2.30
2023-04-05T15:59:13.422Z,2.90
2023-04-05T16:04:16.191Z,3.80
2023-04-05T16:09:19.068Z,3.10
2023-04-05T16:14:44.895Z,2.40
2023-04-05T16:19:48.294Z,3.20
2023-04-05T16:24:54.034Z,3.30
2023-04-05T16:29:58.719Z,2.80
2023-04-05T16:35:01.698Z,5.00
2023-04-05T16:40:25.085Z,3.40
2023-04-05T16:45:33.763Z,3.30
2023-04-05T16:50:39.482Z,4.70
2023-04-05T16:55:51.770Z,7.10
2023-04-05T17:01:07.858Z,3.10
2023-04-05T17:06:28.454Z,4.40
2023-04-05T17:11:31.435Z,4.30
2023-04-05T17:16:37.022Z,8.00
2023-04-05T17:21:45.519Z,16.40
2023-04-05T17:26:56.713Z,17.90
2023-04-05T17:31:59.256Z,17.20
2023-04-05T17:37:01.865Z,19.20
2023-04-05T17:42:09.967Z,23.80
2023-04-05T17:47:15.492Z,24.80
2023-04-05T17:52:30.892Z,32.40
2023-04-05T17:57:48.694Z,18.90
2023-04-05T18:03:13.618Z,18.90
2023-04-05T18:08:18.860Z,19.10
2023-04-05T18:13:21.475Z,15.10
2023-04-05T18:18:24.966Z,11.50
2023-04-05T18:23:27.183Z,11.10
2023-04-05T18:28:32.471Z,11.90
2023-04-05T18:33:34.621Z,11.50
2023-04-05T18:38:39.436Z,10.90
2023-04-05T18:43:42.058Z,14.60
2023-04-05T18:48:44.718Z,13.00
2023-04-05T18:53:46.741Z,11.90
2023-04-05T18:58:50.444Z,13.40
2023-04-05T19:03:52.477Z,14.50
2023-04-05T19:08:54.994Z,14.40
2023-04-05T19:13:59.439Z,17.70
2023-04-05T19:19:06.357Z,14.30
2023-04-05T19:24:13.970Z,17.40
2023-04-05T19:29:17.067Z,19.80
2023-04-05T19:34:19.414Z,18.20
2023-04-05T19:39:25.615Z,20.90
2023-04-05T19:44:54.888Z,24.80
2023-04-05T19:50:00.589Z,24.20
2023-04-05T19:55:27.613Z,25.30
2023-04-05T20:00:39.333Z,37.50
2023-04-05T20:05:47.065Z,32.60
2023-04-05T20:10:52.189Z,32.20
2023-04-05T20:15:55.522Z,35.80
2023-04-05T20:20:57.843Z,37.80
2023-04-05T20:26:00.369Z,40.90
2023-04-05T20:31:04.810Z,38.70
2023-04-05T20:36:13.003Z,36.90
2023-04-05T20:41:17.373Z,62.80
2023-04-05T20:46:22.788Z,37.60
2023-04-05T20:51:26.074Z,44.00
2023-04-05T20:56:28.373Z,36.10
2023-04-05T21:01:42.819Z,38.80
2023-04-05T21:06:45.069Z,39.90
2023-04-05T21:11:47.920Z,37.40
2023-04-05T21:16:50.220Z,39.80
2023-04-05T21:21:52.860Z,43.20
2023-04-05T21:26:56.860Z,44.00
2023-04-05T21:32:04.401Z,57.70
2023-04-05T21:37:10.278Z,54.10
2023-04-05T21:42:13.728Z,55.90
2023-04-05T21:47:35.755Z,53.00
2023-04-05T21:52:42.798Z,62.00
2023-04-05T21:57:45.724Z,57.20
2023-04-05T22:02:48.389Z,55.00
2023-04-05T22:07:53.705Z,55.20
2023-04-05T22:12:56.606Z,48.90
2023-04-05T22:17:59.478Z,45.20
2023-04-05T22:23:02.209Z,47.90
2023-04-05T22:28:05.083Z,46.70
2023-04-05T22:33:08.531Z,51.70
2023-04-05T22:38:11.200Z,58.00
2023-04-05T22:43:14.502Z,51.90
2023-04-05T22:48:16.970Z,55.30
2023-04-05T22:53:19.768Z,58.40
2023-04-05T22:58:32.731Z,58.00
2023-04-05T23:03:41.272Z,53.10
2023-04-05T23:08:48.686Z,54.40
2023-04-05T23:14:18.138Z,55.00
2023-04-05T23:19:22.332Z,56.20
2023-04-05T23:24:25.074Z,59.30
2023-04-05T23:29:30.481Z,61.90
2023-04-05T23:34:32.919Z,58.40
2023-04-05T23:39:35.394Z,54.80
2023-04-05T23:44:39.372Z,50.10
2023-04-05T23:49:43.886Z,52.30
2023-04-05T23:54:47.453Z,55.50
2023-04-05T23:59:52.008Z,58.30
